sensor_id;sensor_type;location;lat;lon;timestamp;P1;durP1;ratioP1;P2;durP2;ratioP2
53642;SDS011;39546;45.534;12.048;2024-02-21T00:03:19;40.80;;;35.92;;
53642;SDS011;39546;45.534;12.048;2024-02-21T00:09:21;41.35;;;37.33;;
53642;SDS011;39546;45.534;12.048;2024-02-21T00:15:22;34.92;;;31.60;;
53642;SDS011;39546;45.534;12.048;2024-02-21T00:21:24;36.65;;;33.15;;
53642;SDS011;39546;45.534;12.048;2024-02-21T00:27:26;38.10;;;34.63;;
53642;SDS011;39546;45.534;12.048;2024-02-21T00:33:28;41.42;;;37.45;;
53642;SDS011;39546;45.534;12.048;2024-02-21T00:39:29;45.70;;;40.95;;
53642;SDS011;39546;45.534;12.048;2024-02-21T00:45:31;41.10;;;37.25;;
53642;SDS011;39546;45.534;12.048;2024-02-21T00:51:34;39.60;;;35.53;;
53642;SDS011;39546;45.534;12.048;2024-02-21T00:57:35;40.58;;;36.90;;
53642;SDS011;39546;45.534;12.048;2024-02-21T01:03:39;41.65;;;37.67;;
53642;SDS011;39546;45.534;12.048;2024-02-21T01:09:49;41.00;;;37.13;;
53642;SDS011;39546;45.534;12.048;2024-02-21T01:15:52;39.80;;;36.30;;
53642;SDS011;39546;45.534;12.048;2024-02-21T01:21:53;43.45;;;39.58;;
53642;SDS011;39546;45.534;12.048;2024-02-21T01:27:55;44.00;;;39.83;;
53642;SDS011;39546;45.534;12.048;2024-02-21T01:33:57;35.67;;;32.38;;
53642;SDS011;39546;45.534;12.048;2024-02-21T01:40:02;41.03;;;37.33;;
53642;SDS011;39546;45.534;12.048;2024-02-21T01:46:04;41.42;;;37.78;;
53642;SDS011;39546;45.534;12.048;2024-02-21T01:52:07;34.53;;;31.50;;
53642;SDS011;39546;45.534;12.048;2024-02-21T01:58:09;33.45;;;30.55;;
53642;SDS011;39546;45.534;12.048;2024-02-21T02:04:11;37.83;;;34.28;;
53642;SDS011;39546;45.534;12.048;2024-02-21T02:10:13;34.58;;;30.92;;
53642;SDS011;39546;45.534;12.048;2024-02-21T02:16:14;33.47;;;30.55;;
53642;SDS011;39546;45.534;12.048;2024-02-21T02:22:17;33.65;;;30.50;;
53642;SDS011;39546;45.534;12.048;2024-02-21T02:28:23;34.63;;;31.63;;
53642;SDS011;39546;45.534;12.048;2024-02-21T02:34:25;31.98;;;29.13;;
53642;SDS011;39546;45.534;12.048;2024-02-21T02:40:27;29.48;;;26.95;;
53642;SDS011;39546;45.534;12.048;2024-02-21T02:46:28;27.30;;;24.92;;
53642;SDS011;39546;45.534;12.048;2024-02-21T02:52:30;24.38;;;22.15;;
53642;SDS011;39546;45.534;12.048;2024-02-21T02:58:31;23.27;;;20.88;;
53642;SDS011;39546;45.534;12.048;2024-02-21T03:04:33;21.80;;;19.67;;
53642;SDS011;39546;45.534;12.048;2024-02-21T03:10:34;23.05;;;20.80;;
53642;SDS011;39546;45.534;12.048;2024-02-21T03:16:36;21.77;;;19.58;;
53642;SDS011;39546;45.534;12.048;2024-02-21T03:22:38;21.88;;;19.67;;
53642;SDS011;39546;45.534;12.048;2024-02-21T03:28:39;20.85;;;18.75;;
53642;SDS011;39546;45.534;12.048;2024-02-21T03:34:41;18.58;;;16.83;;
53642;SDS011;39546;45.534;12.048;2024-02-21T03:40:43;19.70;;;17.77;;
53642;SDS011;39546;45.534;12.048;2024-02-21T03:46:45;18.20;;;16.33;;
53642;SDS011;39546;45.534;12.048;2024-02-21T03:52:48;18.00;;;15.88;;
53642;SDS011;39546;45.534;12.048;2024-02-21T03:58:50;16.20;;;13.45;;
53642;SDS011;39546;45.534;12.048;2024-02-21T04:04:51;18.40;;;15.05;;
53642;SDS011;39546;45.534;12.048;2024-02-21T04:10:53;16.15;;;13.73;;
53642;SDS011;39546;45.534;12.048;2024-02-21T04:16:54;17.13;;;14.75;;
53642;SDS011;39546;45.534;12.048;2024-02-21T04:22:56;15.50;;;13.68;;
53642;SDS011;39546;45.534;12.048;2024-02-21T04:28:58;17.65;;;14.57;;
53642;SDS011;39546;45.534;12.048;2024-02-21T04:34:59;16.58;;;14.40;;
53642;SDS011;39546;45.534;12.048;2024-02-21T04:41:01;16.55;;;13.40;;
53642;SDS011;39546;45.534;12.048;2024-02-21T04:47:02;15.32;;;13.70;;
53642;SDS011;39546;45.534;12.048;2024-02-21T04:53:04;22.52;;;20.05;;
53642;SDS011;39546;45.534;12.048;2024-02-21T04:59:06;18.02;;;15.38;;
53642;SDS011;39546;45.534;12.048;2024-02-21T05:05:08;18.00;;;15.77;;
53642;SDS011;39546;45.534;12.048;2024-02-21T05:11:09;17.35;;;14.20;;
53642;SDS011;39546;45.534;12.048;2024-02-21T05:17:11;18.13;;;16.25;;
53642;SDS011;39546;45.534;12.048;2024-02-21T05:23:12;18.55;;;15.85;;
53642;SDS011;39546;45.534;12.048;2024-02-21T05:29:14;19.38;;;15.60;;
53642;SDS011;39546;45.534;12.048;2024-02-21T05:35:15;18.73;;;16.73;;
53642;SDS011;39546;45.534;12.048;2024-02-21T05:41:17;19.23;;;17.30;;
53642;SDS011;39546;45.534;12.048;2024-02-21T05:47:19;19.25;;;17.25;;
53642;SDS011;39546;45.534;12.048;2024-02-21T05:53:21;19.08;;;16.15;;
53642;SDS011;39546;45.534;12.048;2024-02-21T05:59:23;22.58;;;15.40;;
53642;SDS011;39546;45.534;12.048;2024-02-21T06:05:25;19.92;;;17.50;;
53642;SDS011;39546;45.534;12.048;2024-02-21T06:11:26;20.60;;;17.48;;
53642;SDS011;39546;45.534;12.048;2024-02-21T06:17:28;22.02;;;19.88;;
53642;SDS011;39546;45.534;12.048;2024-02-21T06:23:30;18.05;;;15.98;;
53642;SDS011;39546;45.534;12.048;2024-02-21T06:29:32;20.83;;;17.77;;
53642;SDS011;39546;45.534;12.048;2024-02-21T06:35:34;23.92;;;21.85;;
53642;SDS011;39546;45.534;12.048;2024-02-21T06:41:37;17.40;;;15.73;;
53642;SDS011;39546;45.534;12.048;2024-02-21T06:47:39;15.80;;;14.07;;
53642;SDS011;39546;45.534;12.048;2024-02-21T06:53:40;20.27;;;17.13;;
53642;SDS011;39546;45.534;12.048;2024-02-21T06:59:42;17.10;;;15.25;;
53642;SDS011;39546;45.534;12.048;2024-02-21T07:05:44;17.20;;;15.45;;
53642;SDS011;39546;45.534;12.048;2024-02-21T07:11:45;22.70;;;19.73;;
53642;SDS011;39546;45.534;12.048;2024-02-21T07:17:47;23.58;;;18.92;;
53642;SDS011;39546;45.534;12.048;2024-02-21T07:23:49;25.50;;;22.63;;
53642;SDS011;39546;45.534;12.048;2024-02-21T07:29:51;26.13;;;23.52;;
53642;SDS011;39546;45.534;12.048;2024-02-21T07:35:53;25.05;;;22.73;;
53642;SDS011;39546;45.534;12.048;2024-02-21T07:41:55;27.45;;;22.17;;
53642;SDS011;39546;45.534;12.048;2024-02-21T07:47:57;23.10;;;20.77;;
53642;SDS011;39546;45.534;12.048;2024-02-21T07:53:58;23.45;;;21.33;;
53642;SDS011;39546;45.534;12.048;2024-02-21T08:00:00;27.67;;;25.05;;
53642;SDS011;39546;45.534;12.048;2024-02-21T08:06:03;22.42;;;20.45;;
53642;SDS011;39546;45.534;12.048;2024-02-21T08:12:05;25.00;;;22.90;;
53642;SDS011;39546;45.534;12.048;2024-02-21T08:18:07;31.10;;;28.80;;
53642;SDS011;39546;45.534;12.048;2024-02-21T08:24:13;45.65;;;43.08;;
53642;SDS011;39546;45.534;12.048;2024-02-21T08:30:18;23.23;;;21.13;;
53642;SDS011;39546;45.534;12.048;2024-02-21T08:36:21;19.55;;;17.75;;
53642;SDS011;39546;45.534;12.048;2024-02-21T08:42:22;23.08;;;21.10;;
53642;SDS011;39546;45.534;12.048;2024-02-21T08:48:24;57.05;;;53.53;;
53642;SDS011;39546;45.534;12.048;2024-02-21T08:54:26;17.42;;;15.93;;
53642;SDS011;39546;45.534;12.048;2024-02-21T09:00:28;14.45;;;13.05;;
53642;SDS011;39546;45.534;12.048;2024-02-21T09:06:30;50.28;;;47.42;;
53642;SDS011;39546;45.534;12.048;2024-02-21T09:12:34;23.15;;;21.48;;
53642;SDS011;39546;45.534;12.048;2024-02-21T09:18:41;44.47;;;41.80;;
53642;SDS011;39546;45.534;12.048;2024-02-21T09:24:43;15.63;;;14.38;;
53642;SDS011;39546;45.534;12.048;2024-02-21T09:30:53;65.55;;;62.30;;
53642;SDS011;39546;45.534;12.048;2024-02-21T09:36:54;75.45;;;72.00;;
53642;SDS011;39546;45.534;12.048;2024-02-21T09:43:05;74.38;;;70.88;;
53642;SDS011;39546;45.534;12.048;2024-02-21T09:49:21;46.30;;;43.65;;
53642;SDS011;39546;45.534;12.048;2024-02-21T09:55:38;52.22;;;49.63;;
53642;SDS011;39546;45.534;12.048;2024-02-21T10:01:42;43.75;;;41.30;;
53642;SDS011;39546;45.534;12.048;2024-02-21T10:07:45;130.20;;;124.57;;
53642;SDS011;39546;45.534;12.048;2024-02-21T10:13:49;123.85;;;118.35;;
53642;SDS011;39546;45.534;12.048;2024-02-21T10:19:51;130.52;;;125.07;;
53642;SDS011;39546;45.534;12.048;2024-02-21T10:25:53;104.50;;;99.80;;
53642;SDS011;39546;45.534;12.048;2024-02-21T10:32:05;114.07;;;109.28;;
53642;SDS011;39546;45.534;12.048;2024-02-21T10:38:08;89.03;;;85.30;;
53642;SDS011;39546;45.534;12.048;2024-02-21T10:44:09;74.97;;;70.78;;
53642;SDS011;39546;45.534;12.048;2024-02-21T10:50:12;117.20;;;112.38;;
53642;SDS011;39546;45.534;12.048;2024-02-21T10:56:21;104.20;;;99.63;;
53642;SDS011;39546;45.534;12.048;2024-02-21T11:02:27;51.95;;;49.78;;
53642;SDS011;39546;45.534;12.048;2024-02-21T11:08:32;86.00;;;82.53;;
53642;SDS011;39546;45.534;12.048;2024-02-21T11:14:34;32.20;;;30.63;;
53642;SDS011;39546;45.534;12.048;2024-02-21T11:20:40;30.02;;;28.60;;
53642;SDS011;39546;45.534;12.048;2024-02-21T11:26:51;5.25;;;3.67;;
53642;SDS011;39546;45.534;12.048;2024-02-21T11:33:02;6.85;;;3.95;;
53642;SDS011;39546;45.534;12.048;2024-02-21T11:39:04;4.47;;;3.40;;
53642;SDS011;39546;45.534;12.048;2024-02-21T11:45:07;5.40;;;3.65;;
53642;SDS011;39546;45.534;12.048;2024-02-21T11:51:12;6.18;;;4.50;;
53642;SDS011;39546;45.534;12.048;2024-02-21T11:57:23;7.32;;;4.20;;
53642;SDS011;39546;45.534;12.048;2024-02-21T12:03:25;5.68;;;3.53;;
53642;SDS011;39546;45.534;12.048;2024-02-21T12:09:27;6.65;;;4.57;;
53642;SDS011;39546;45.534;12.048;2024-02-21T12:15:29;8.48;;;6.57;;
53642;SDS011;39546;45.534;12.048;2024-02-21T12:21:33;5.97;;;3.70;;
53642;SDS011;39546;45.534;12.048;2024-02-21T12:27:38;9.23;;;5.47;;
53642;SDS011;39546;45.534;12.048;2024-02-21T12:33:40;8.88;;;6.18;;
53642;SDS011;39546;45.534;12.048;2024-02-21T12:39:42;7.65;;;4.53;;
53642;SDS011;39546;45.534;12.048;2024-02-21T12:45:44;12.23;;;8.63;;
53642;SDS011;39546;45.534;12.048;2024-02-21T12:51:48;9.30;;;6.78;;
53642;SDS011;39546;45.534;12.048;2024-02-21T12:57:50;12.07;;;8.77;;
53642;SDS011;39546;45.534;12.048;2024-02-21T13:03:52;12.45;;;8.00;;
53642;SDS011;39546;45.534;12.048;2024-02-21T13:09:55;12.40;;;9.60;;
53642;SDS011;39546;45.534;12.048;2024-02-21T13:15:57;18.02;;;13.95;;
53642;SDS011;39546;45.534;12.048;2024-02-21T13:21:59;29.33;;;20.50;;
53642;SDS011;39546;45.534;12.048;2024-02-21T13:28:01;27.52;;;21.60;;
53642;SDS011;39546;45.534;12.048;2024-02-21T13:34:04;15.18;;;13.55;;
53642;SDS011;39546;45.534;12.048;2024-02-21T13:40:06;16.83;;;13.27;;
53642;SDS011;39546;45.534;12.048;2024-02-21T13:46:10;18.48;;;13.02;;
53642;SDS011;39546;45.534;12.048;2024-02-21T13:52:18;14.80;;;10.15;;
53642;SDS011;39546;45.534;12.048;2024-02-21T13:58:22;15.98;;;11.10;;
53642;SDS011;39546;45.534;12.048;2024-02-21T14:04:26;16.77;;;10.25;;
53642;SDS011;39546;45.534;12.048;2024-02-21T14:10:28;12.70;;;9.00;;
53642;SDS011;39546;45.534;12.048;2024-02-21T14:16:30;14.70;;;11.30;;
53642;SDS011;39546;45.534;12.048;2024-02-21T14:22:32;10.20;;;8.02;;
53642;SDS011;39546;45.534;12.048;2024-02-21T14:28:34;11.68;;;9.02;;
53642;SDS011;39546;45.534;12.048;2024-02-21T14:34:35;15.40;;;7.55;;
53642;SDS011;39546;45.534;12.048;2024-02-21T14:40:37;11.70;;;7.70;;
53642;SDS011;39546;45.534;12.048;2024-02-21T14:46:39;11.75;;;8.90;;
53642;SDS011;39546;45.534;12.048;2024-02-21T14:52:41;12.85;;;7.43;;
53642;SDS011;39546;45.534;12.048;2024-02-21T14:58:44;8.00;;;6.53;;
53642;SDS011;39546;45.534;12.048;2024-02-21T15:04:48;9.07;;;6.10;;
53642;SDS011;39546;45.534;12.048;2024-02-21T15:10:50;10.02;;;6.60;;
53642;SDS011;39546;45.534;12.048;2024-02-21T15:16:52;9.35;;;6.53;;
53642;SDS011;39546;45.534;12.048;2024-02-21T15:22:53;8.55;;;6.50;;
53642;SDS011;39546;45.534;12.048;2024-02-21T15:28:55;10.60;;;8.40;;
53642;SDS011;39546;45.534;12.048;2024-02-21T15:34:57;7.30;;;5.65;;
53642;SDS011;39546;45.534;12.048;2024-02-21T15:40:59;9.90;;;5.38;;
53642;SDS011;39546;45.534;12.048;2024-02-21T15:47:01;8.57;;;5.88;;
53642;SDS011;39546;45.534;12.048;2024-02-21T15:53:03;8.80;;;4.55;;
53642;SDS011;39546;45.534;12.048;2024-02-21T15:59:04;9.48;;;5.50;;
53642;SDS011;39546;45.534;12.048;2024-02-21T16:05:07;8.70;;;5.80;;
53642;SDS011;39546;45.534;12.048;2024-02-21T16:11:13;6.43;;;4.50;;
53642;SDS011;39546;45.534;12.048;2024-02-21T16:17:17;7.85;;;5.65;;
53642;SDS011;39546;45.534;12.048;2024-02-21T16:23:18;5.47;;;3.78;;
53642;SDS011;39546;45.534;12.048;2024-02-21T16:29:20;8.50;;;5.40;;
53642;SDS011;39546;45.534;12.048;2024-02-21T16:35:23;9.38;;;6.85;;
53642;SDS011;39546;45.534;12.048;2024-02-21T16:41:28;59.97;;;57.20;;
53642;SDS011;39546;45.534;12.048;2024-02-21T16:47:30;34.47;;;32.53;;
53642;SDS011;39546;45.534;12.048;2024-02-21T16:53:32;82.57;;;78.57;;
53642;SDS011;39546;45.534;12.048;2024-02-21T16:59:34;15.80;;;14.63;;
53642;SDS011;39546;45.534;12.048;2024-02-21T17:05:38;102.05;;;97.43;;
53642;SDS011;39546;45.534;12.048;2024-02-21T17:11:39;90.53;;;86.22;;
53642;SDS011;39546;45.534;12.048;2024-02-21T17:17:41;117.07;;;111.75;;
53642;SDS011;39546;45.534;12.048;2024-02-21T17:23:43;105.40;;;100.38;;
53642;SDS011;39546;45.534;12.048;2024-02-21T17:29:45;37.80;;;35.50;;
53642;SDS011;39546;45.534;12.048;2024-02-21T17:35:47;65.10;;;61.97;;
53642;SDS011;39546;45.534;12.048;2024-02-21T17:41:50;25.60;;;23.90;;
53642;SDS011;39546;45.534;12.048;2024-02-21T17:47:54;18.40;;;16.85;;
53642;SDS011;39546;45.534;12.048;2024-02-21T17:53:56;56.15;;;53.35;;
53642;SDS011;39546;45.534;12.048;2024-02-21T17:59:58;52.83;;;50.28;;
53642;SDS011;39546;45.534;12.048;2024-02-21T18:06:00;18.95;;;17.65;;
53642;SDS011;39546;45.534;12.048;2024-02-21T18:12:02;47.65;;;45.08;;
53642;SDS011;39546;45.534;12.048;2024-02-21T18:18:04;34.72;;;32.85;;
53642;SDS011;39546;45.534;12.048;2024-02-21T18:24:07;12.82;;;11.75;;
53642;SDS011;39546;45.534;12.048;2024-02-21T18:30:08;28.70;;;26.95;;
53642;SDS011;39546;45.534;12.048;2024-02-21T18:36:12;27.77;;;25.92;;
53642;SDS011;39546;45.534;12.048;2024-02-21T18:42:13;19.83;;;18.27;;
53642;SDS011;39546;45.534;12.048;2024-02-21T18:48:15;34.00;;;32.13;;
53642;SDS011;39546;45.534;12.048;2024-02-21T18:54:17;24.63;;;23.08;;
53642;SDS011;39546;45.534;12.048;2024-02-21T19:00:19;22.90;;;21.23;;
53642;SDS011;39546;45.534;12.048;2024-02-21T19:06:24;30.75;;;28.60;;
53642;SDS011;39546;45.534;12.048;2024-02-21T19:12:28;30.85;;;28.58;;
53642;SDS011;39546;45.534;12.048;2024-02-21T19:18:32;15.80;;;14.30;;
53642;SDS011;39546;45.534;12.048;2024-02-21T19:24:34;32.22;;;30.05;;
53642;SDS011;39546;45.534;12.048;2024-02-21T19:30:36;42.33;;;39.72;;
53642;SDS011;39546;45.534;12.048;2024-02-21T19:36:38;37.13;;;34.92;;
53642;SDS011;39546;45.534;12.048;2024-02-21T19:42:40;27.55;;;25.65;;
53642;SDS011;39546;45.534;12.048;2024-02-21T19:48:42;32.03;;;29.65;;
53642;SDS011;39546;45.534;12.048;2024-02-21T19:54:44;37.90;;;35.25;;
53642;SDS011;39546;45.534;12.048;2024-02-21T20:00:46;16.33;;;14.80;;
53642;SDS011;39546;45.534;12.048;2024-02-21T20:06:48;16.85;;;15.13;;
53642;SDS011;39546;45.534;12.048;2024-02-21T20:12:50;13.45;;;12.02;;
53642;SDS011;39546;45.534;12.048;2024-02-21T20:18:52;27.80;;;25.65;;
53642;SDS011;39546;45.534;12.048;2024-02-21T20:24:54;12.73;;;10.48;;
53642;SDS011;39546;45.534;12.048;2024-02-21T20:30:56;16.73;;;15.10;;
53642;SDS011;39546;45.534;12.048;2024-02-21T20:36:58;38.33;;;36.08;;
53642;SDS011;39546;45.534;12.048;2024-02-21T20:43:00;20.27;;;18.50;;
53642;SDS011;39546;45.534;12.048;2024-02-21T20:49:02;17.23;;;15.27;;
53642;SDS011;39546;45.534;12.048;2024-02-21T20:55:04;14.70;;;13.10;;
53642;SDS011;39546;45.534;12.048;2024-02-21T21:01:07;23.38;;;21.50;;
53642;SDS011;39546;45.534;12.048;2024-02-21T21:07:09;16.13;;;14.50;;
53642;SDS011;39546;45.534;12.048;2024-02-21T21:13:11;15.77;;;14.13;;
53642;SDS011;39546;45.534;12.048;2024-02-21T21:19:13;16.90;;;15.30;;
53642;SDS011;39546;45.534;12.048;2024-02-21T21:25:15;54.40;;;50.85;;
53642;SDS011;39546;45.534;12.048;2024-02-21T21:31:17;19.95;;;17.90;;
53642;SDS011;39546;45.534;12.048;2024-02-21T21:37:20;21.60;;;19.58;;
53642;SDS011;39546;45.534;12.048;2024-02-21T21:43:22;18.60;;;16.80;;
53642;SDS011;39546;45.534;12.048;2024-02-21T21:49:24;21.95;;;19.83;;
53642;SDS011;39546;45.534;12.048;2024-02-21T21:55:28;24.52;;;22.13;;
53642;SDS011;39546;45.534;12.048;2024-02-21T22:01:31;21.73;;;19.80;;
53642;SDS011;39546;45.534;12.048;2024-02-21T22:07:33;24.08;;;21.90;;
53642;SDS011;39546;45.534;12.048;2024-02-21T22:13:35;22.35;;;20.20;;
53642;SDS011;39546;45.534;12.048;2024-02-21T22:19:36;27.17;;;24.25;;
53642;SDS011;39546;45.534;12.048;2024-02-21T22:25:38;27.38;;;24.80;;
53642;SDS011;39546;45.534;12.048;2024-02-21T22:31:41;27.05;;;24.63;;
53642;SDS011;39546;45.534;12.048;2024-02-21T22:37:43;22.55;;;20.25;;
53642;SDS011;39546;45.534;12.048;2024-02-21T22:43:44;23.60;;;21.25;;
53642;SDS011;39546;45.534;12.048;2024-02-21T22:49:46;23.08;;;20.90;;
53642;SDS011;39546;45.534;12.048;2024-02-21T22:55:48;22.13;;;20.38;;
53642;SDS011;39546;45.534;12.048;2024-02-21T23:01:50;22.77;;;20.48;;
53642;SDS011;39546;45.534;12.048;2024-02-21T23:07:52;16.25;;;14.57;;
53642;SDS011;39546;45.534;12.048;2024-02-21T23:13:59;26.63;;;24.23;;
53642;SDS011;39546;45.534;12.048;2024-02-21T23:20:02;30.58;;;28.08;;
53642;SDS011;39546;45.534;12.048;2024-02-21T23:26:30;25.52;;;23.25;;
53642;SDS011;39546;45.534;12.048;2024-02-21T23:32:32;22.52;;;20.55;;
53642;SDS011;39546;45.534;12.048;2024-02-21T23:38:33;25.35;;;22.25;;
53642;SDS011;39546;45.534;12.048;2024-02-21T23:44:35;28.42;;;25.58;;
53642;SDS011;39546;45.534;12.048;2024-02-21T23:50:36;23.95;;;21.38;;
53642;SDS011;39546;45.534;12.048;2024-02-21T23:56:41;27.85;;;25.00;;
